Time;durP1;ratioP1;P1;durP2;ratioP2;P2;SDS_P1;SDS_P2;PMS_P1;PMS_P2;Temp;Humidity;BMP_temperature;BMP_pressure;BME280_temperature;BME280_humidity;BME280_pressure;Samples;Min_cycle;Max_cycle;Signal;HPM_P1;HPM_P2
2022/05/22 00:01:37;;;;;;;2.42;2.22;;;14.50;99.90;;;;;;4952399;29;20250;-70
2022/05/22 00:04:06;;;;;;;3.53;2.35;;;14.50;99.90;;;;;;4951843;28;20208;-69
2022/05/22 00:06:35;;;;;;;3.67;1.75;;;14.40;99.90;;;;;;4955741;29;20239;-69
2022/05/22 00:09:05;;;;;;;2.10;1.60;;;14.50;99.90;;;;;;4955425;28;20215;-69
2022/05/22 00:11:33;;;;;;;3.08;1.70;;;14.50;99.90;;;;;;4951502;29;20228;-69
2022/05/22 00:14:01;;;;;;;3.38;1.73;;;14.40;99.90;;;;;;4948976;29;20229;-69
2022/05/22 00:16:40;;;;;;;4.25;1.90;;;14.40;99.90;;;;;;4972891;23;20231;-64
2022/05/22 00:19:11;;;;;;;5.75;2.53;;;14.50;99.90;;;;;;4969010;28;20202;-64
2022/05/22 00:21:40;;;;;;;1.60;1.25;;;14.50;99.90;;;;;;4955905;28;20722;-64
2022/05/22 00:24:10;;;;;;;4.85;1.92;;;14.50;99.90;;;;;;4954824;28;20270;-64
2022/05/22 00:26:38;;;;;;;2.13;1.55;;;14.50;99.90;;;;;;4957356;28;20263;-64
2022/05/22 00:29:07;;;;;;;3.20;1.45;;;14.60;99.90;;;;;;4974140;28;20238;-64
2022/05/22 00:31:35;;;;;;;3.55;2.05;;;14.70;99.90;;;;;;4973926;28;20258;-64
2022/05/22 00:34:03;;;;;;;2.67;1.70;;;14.70;99.90;;;;;;4973447;28;20217;-64
2022/05/22 00:36:32;;;;;;;3.38;1.85;;;14.60;99.90;;;;;;4973723;28;20226;-64
2022/05/22 00:39:01;;;;;;;4.47;1.75;;;14.40;99.90;;;;;;4971399;28;20660;-64
2022/05/22 00:41:29;;;;;;;5.93;1.88;;;14.40;99.90;;;;;;4965093;28;20246;-64
2022/05/22 00:43:58;;;;;;;3.65;1.63;;;14.40;99.90;;;;;;4955160;28;20223;-64
2022/05/22 00:46:26;;;;;;;5.82;1.60;;;14.20;99.90;;;;;;4955501;28;20258;-64
2022/05/22 00:48:59;;;;;;;4.60;1.83;;;14.20;99.90;;;;;;4955267;28;20215;-64
2022/05/22 00:51:36;;;;;;;4.07;1.65;;;14.20;99.90;;;;;;4955469;28;20702;-64
2022/05/22 00:54:11;;;;;;;2.20;1.85;;;14.10;99.90;;;;;;4954583;28;20207;-64
2022/05/22 00:56:46;;;;;;;3.92;1.92;;;14.20;99.90;;;;;;4955034;28;20273;-64
2022/05/22 00:59:20;;;;;;;2.70;1.48;;;14.10;99.90;;;;;;4955153;28;20842;-64
2022/05/22 01:01:48;;;;;;;8.10;2.20;;;14.10;99.90;;;;;;4968196;28;20651;-64
2022/05/22 01:04:21;;;;;;;5.95;2.05;;;14.20;99.90;;;;;;4973080;28;20281;-64
2022/05/22 01:06:52;;;;;;;4.35;2.00;;;14.10;99.90;;;;;;4973412;28;20246;-64
2022/05/22 01:09:20;;;;;;;2.45;1.63;;;14.10;99.90;;;;;;4971774;28;20242;-64
2022/05/22 01:11:51;;;;;;;2.10;1.55;;;14.10;99.90;;;;;;4957968;28;20259;-64
2022/05/22 01:14:22;;;;;;;3.58;1.60;;;13.90;99.90;;;;;;4954638;28;20215;-64
2022/05/22 01:16:51;;;;;;;6.18;1.98;;;13.90;99.90;;;;;;4953360;28;20338;-62
2022/05/22 01:19:23;;;;;;;2.88;1.45;;;14.00;99.90;;;;;;4954848;28;20245;-62
2022/05/22 01:21:53;;;;;;;4.15;1.80;;;14.00;99.90;;;;;;4954672;28;20630;-62
2022/05/22 01:24:22;;;;;;;2.65;1.73;;;14.10;99.90;;;;;;4954236;28;20203;-62
2022/05/22 01:26:52;;;;;;;5.00;1.90;;;14.10;99.90;;;;;;4954138;28;20269;-62
2022/05/22 01:29:20;;;;;;;3.17;1.30;;;14.20;99.90;;;;;;4954796;28;20624;-62
2022/05/22 01:31:48;;;;;;;5.15;1.70;;;14.10;99.90;;;;;;4954509;28;20255;-62
2022/05/22 01:34:16;;;;;;;2.92;1.65;;;14.10;99.90;;;;;;4953793;28;20199;-62
2022/05/22 01:36:44;;;;;;;5.35;2.05;;;14.10;99.90;;;;;;4954332;28;20326;-63
2022/05/22 01:39:13;;;;;;;2.30;1.63;;;14.00;99.90;;;;;;4968135;28;21272;-61
2022/05/22 01:41:41;;;;;;;3.03;1.50;;;14.10;99.90;;;;;;4969067;28;20640;-62
2022/05/22 01:44:09;;;;;;;2.83;1.70;;;14.10;99.90;;;;;;4964449;28;20740;-61
2022/05/22 01:46:37;;;;;;;3.15;1.35;;;14.10;99.90;;;;;;4965918;28;20243;-64
2022/05/22 01:49:05;;;;;;;5.60;2.00;;;14.20;99.90;;;;;;4966504;28;20232;-61
2022/05/22 01:51:36;;;;;;;5.07;1.92;;;14.20;99.90;;;;;;4968045;28;20293;-63
2022/05/22 01:54:04;;;;;;;3.83;1.90;;;14.10;99.90;;;;;;4969463;28;20231;-63
2022/05/22 01:56:35;;;;;;;2.65;1.50;;;14.10;99.90;;;;;;4967168;28;20380;-64
2022/05/22 01:59:04;;;;;;;3.75;1.92;;;14.00;99.90;;;;;;4968244;28;20203;-61
2022/05/22 02:01:33;;;;;;;6.13;2.13;;;14.00;99.90;;;;;;4964820;28;20672;-60
2022/05/22 02:04:01;;;;;;;3.75;1.85;;;14.00;99.90;;;;;;4968768;28;20207;-61
2022/05/22 02:06:29;;;;;;;5.00;1.80;;;14.00;99.90;;;;;;4962796;28;20224;-61
2022/05/22 02:08:56;;;;;;;5.75;2.00;;;13.90;99.90;;;;;;4966045;28;20234;-61
2022/05/22 02:11:24;;;;;;;2.47;1.35;;;13.80;99.90;;;;;;4966699;28;20208;-61
2022/05/22 02:13:53;;;;;;;3.58;1.92;;;13.80;99.90;;;;;;4962393;28;20665;-61
2022/05/22 02:16:21;;;;;;;3.92;2.05;;;13.90;99.90;;;;;;4953557;28;20282;-61
2022/05/22 02:18:49;;;;;;;3.78;2.05;;;13.90;99.90;;;;;;4966193;28;20210;-61
2022/05/22 02:21:16;;;;;;;5.68;1.95;;;13.90;99.90;;;;;;4967203;28;20203;-61
2022/05/22 02:23:44;;;;;;;1.67;1.55;;;14.00;99.90;;;;;;4954062;28;20242;-61
2022/05/22 02:26:13;;;;;;;7.85;2.13;;;14.00;99.90;;;;;;4963842;28;20226;-61
2022/05/22 02:28:41;;;;;;;2.25;1.38;;;14.10;99.90;;;;;;4958379;28;20225;-61
2022/05/22 02:31:10;;;;;;;7.22;1.90;;;14.00;99.90;;;;;;4962833;28;20724;-61
2022/05/22 02:33:38;;;;;;;4.55;2.00;;;13.90;99.90;;;;;;4959420;28;20443;-60
2022/05/22 02:36:08;;;;;;;4.07;1.83;;;13.90;99.90;;;;;;4958774;28;20332;-61
2022/05/22 02:38:36;;;;;;;3.53;1.55;;;13.80;99.90;;;;;;4966029;28;20264;-61
2022/05/22 02:41:10;;;;;;;4.10;1.58;;;13.80;99.90;;;;;;4973180;28;20202;-60
2022/05/22 02:43:38;;;;;;;3.05;1.50;;;13.70;99.90;;;;;;4958557;28;20195;-60
2022/05/22 02:46:10;;;;;;;2.55;1.50;;;13.70;99.90;;;;;;4960214;28;20223;-60
2022/05/22 02:48:38;;;;;;;5.00;2.05;;;13.70;99.90;;;;;;4957153;28;20211;-61
2022/05/22 02:51:07;;;;;;;2.92;1.42;;;13.70;99.90;;;;;;4967885;28;20227;-61
2022/05/22 02:53:35;;;;;;;4.38;2.13;;;13.60;99.90;;;;;;4959431;28;20314;-60
2022/05/22 02:56:08;;;;;;;2.75;1.90;;;13.60;99.90;;;;;;4962946;28;20218;-61
2022/05/22 02:58:36;;;;;;;3.60;1.75;;;13.50;99.90;;;;;;4958215;28;20203;-60
2022/05/22 03:01:04;;;;;;;3.72;1.55;;;13.40;99.90;;;;;;4960573;28;20230;-61
2022/05/22 03:03:34;;;;;;;8.68;2.30;;;13.30;99.90;;;;;;4960743;28;20208;-61
2022/05/22 03:08:48;;;;;;;4.72;2.10;;;13.20;99.90;;;;;;4960377;28;20218;-61
2022/05/22 03:11:15;;;;;;;3.67;1.88;;;13.20;99.90;;;;;;4975084;28;20210;-60
2022/05/22 03:13:43;;;;;;;4.15;2.10;;;13.20;99.90;;;;;;4958008;28;20221;-61
2022/05/22 03:16:11;;;;;;;3.85;1.77;;;13.10;99.90;;;;;;4962852;28;20286;-61
2022/05/22 03:18:41;;;;;;;2.17;1.95;;;13.00;99.90;;;;;;4956495;28;20259;-61
2022/05/22 03:21:08;;;;;;;2.53;1.73;;;12.90;99.90;;;;;;4964334;28;20301;-61
2022/05/22 03:23:37;;;;;;;4.60;2.45;;;12.90;99.90;;;;;;4958356;28;20676;-61
2022/05/22 03:26:05;;;;;;;3.33;1.67;;;12.90;99.90;;;;;;4958090;28;20625;-61
2022/05/22 03:28:33;;;;;;;4.13;1.95;;;12.80;99.90;;;;;;4967675;28;20210;-60
2022/05/22 03:31:00;;;;;;;2.75;1.88;;;12.80;99.90;;;;;;4958672;28;20211;-61
2022/05/22 03:33:28;;;;;;;7.82;2.00;;;12.70;99.90;;;;;;4956842;28;20222;-61
2022/05/22 03:35:57;;;;;;;3.25;1.88;;;12.70;99.90;;;;;;4958378;28;20640;-61
2022/05/22 03:38:25;;;;;;;3.33;1.92;;;12.70;99.90;;;;;;4961514;28;20306;-61
2022/05/22 03:40:53;;;;;;;3.38;1.95;;;12.70;99.90;;;;;;4962657;28;20256;-61
2022/05/22 03:43:21;;;;;;;4.53;2.45;;;12.70;99.90;;;;;;4970069;28;20628;-61
2022/05/22 03:45:49;;;;;;;5.18;2.55;;;12.60;99.90;;;;;;4962750;28;20207;-60
2022/05/22 03:48:17;;;;;;;3.55;1.75;;;12.60;99.90;;;;;;4968322;28;20230;-61
2022/05/22 03:50:48;;;;;;;2.55;1.65;;;12.50;99.90;;;;;;4961697;28;20235;-62
2022/05/22 03:53:17;;;;;;;2.38;1.83;;;12.60;99.90;;;;;;4966378;28;20246;-61
2022/05/22 03:55:45;;;;;;;5.97;1.85;;;12.60;99.90;;;;;;4963010;28;20293;-62
2022/05/22 03:58:13;;;;;;;3.20;2.17;;;12.60;99.90;;;;;;4962343;28;20269;-62
2022/05/22 04:00:41;;;;;;;4.25;2.35;;;12.60;99.90;;;;;;4962143;28;20217;-62
2022/05/22 04:03:09;;;;;;;4.30;2.75;;;12.50;99.90;;;;;;4962785;28;20223;-61
2022/05/22 04:05:37;;;;;;;3.63;1.98;;;12.50;99.90;;;;;;4964229;28;20258;-62
2022/05/22 04:08:06;;;;;;;3.80;2.30;;;12.40;99.90;;;;;;4965578;28;20207;-61
2022/05/22 04:10:37;;;;;;;4.75;2.38;;;12.50;99.90;;;;;;4979377;28;20242;-61
2022/05/22 04:13:05;;;;;;;1.92;1.65;;;12.50;99.90;;;;;;4963058;28;20347;-62
2022/05/22 04:15:33;;;;;;;2.55;1.63;;;12.50;99.90;;;;;;4965173;28;20238;-62
2022/05/22 04:18:01;;;;;;;3.63;2.22;;;12.50;99.90;;;;;;4965213;28;20261;-62
2022/05/22 04:20:29;;;;;;;3.28;2.20;;;12.50;99.90;;;;;;4966046;28;20626;-62
2022/05/22 04:25:54;;;;;;;2.95;2.03;;;12.50;99.90;;;;;;4962813;28;20227;-62
2022/05/22 04:28:22;;;;;;;2.33;2.08;;;12.40;99.90;;;;;;4962096;28;20742;-62
2022/05/22 04:30:51;;;;;;;2.65;2.45;;;12.40;99.90;;;;;;4961850;28;20214;-61
2022/05/22 04:33:19;;;;;;;3.90;2.40;;;12.40;99.90;;;;;;4965746;28;20222;-61
2022/05/22 04:35:47;;;;;;;6.03;2.20;;;12.40;99.90;;;;;;4960807;28;20227;-60
2022/05/22 04:38:16;;;;;;;5.95;2.15;;;12.50;99.90;;;;;;4963922;28;20281;-61
2022/05/22 04:40:53;;;;;;;5.30;2.45;;;12.50;99.90;;;;;;4971642;28;20691;-62
2022/05/22 04:43:22;;;;;;;3.25;2.47;;;12.60;99.90;;;;;;4971937;28;20233;-62
2022/05/22 04:45:51;;;;;;;6.25;2.60;;;12.70;99.90;;;;;;4960394;28;20801;-61
2022/05/22 04:48:19;;;;;;;3.88;2.42;;;12.70;99.90;;;;;;4964052;28;20203;-62
2022/05/22 04:50:48;;;;;;;3.22;2.30;;;12.70;99.90;;;;;;4961933;28;20258;-62
2022/05/22 04:53:17;;;;;;;4.50;2.75;;;12.80;99.90;;;;;;4963600;28;20301;-62
2022/05/22 04:55:46;;;;;;;4.95;3.17;;;12.80;99.90;;;;;;4961948;28;20253;-62
2022/05/22 04:58:16;;;;;;;2.85;1.80;;;12.90;99.90;;;;;;4969241;28;20234;-63
2022/05/22 05:00:45;;;;;;;6.45;2.75;;;13.10;99.90;;;;;;4963887;28;20582;-62
2022/05/22 05:03:14;;;;;;;3.25;2.30;;;13.10;99.90;;;;;;4957579;28;20203;-62
2022/05/22 05:05:42;;;;;;;2.53;2.22;;;13.20;99.90;;;;;;4962883;28;20242;-62
2022/05/22 05:08:10;;;;;;;6.43;2.58;;;13.20;99.90;;;;;;4966990;28;20194;-63
2022/05/22 05:10:38;;;;;;;4.38;2.47;;;13.30;99.90;;;;;;4971079;28;22112;-63
2022/05/22 05:13:06;;;;;;;5.53;2.45;;;13.30;99.90;;;;;;4961985;28;20253;-62
2022/05/22 05:15:34;;;;;;;6.00;2.65;;;13.40;99.90;;;;;;4963653;28;20630;-63
2022/05/22 05:18:03;;;;;;;6.13;2.90;;;13.50;99.90;;;;;;4961860;28;20227;-63
2022/05/22 05:20:32;;;;;;;3.90;3.15;;;13.60;99.90;;;;;;4964351;28;20255;-63
2022/05/22 05:23:03;;;;;;;5.53;2.75;;;13.70;99.90;;;;;;4960344;28;20257;-63
2022/05/22 05:25:31;;;;;;;4.70;2.55;;;13.90;99.90;;;;;;4966938;28;20567;-63
2022/05/22 05:27:59;;;;;;;4.03;3.05;;;13.90;99.90;;;;;;4959501;28;20281;-62
2022/05/22 05:30:27;;;;;;;7.25;3.25;;;14.00;99.90;;;;;;4968126;28;20234;-63
2022/05/22 05:32:56;;;;;;;4.88;2.67;;;14.10;99.90;;;;;;4964994;28;20211;-63
2022/05/22 05:35:25;;;;;;;2.85;2.63;;;14.20;99.90;;;;;;4964596;28;20275;-63
2022/05/22 05:37:53;;;;;;;5.30;2.72;;;14.40;99.90;;;;;;4962527;28;20307;-62
2022/05/22 05:40:21;;;;;;;6.22;4.20;;;14.40;99.90;;;;;;4964174;28;20262;-63
2022/05/22 05:42:49;;;;;;;5.93;2.63;;;14.50;99.90;;;;;;4967678;28;20679;-61
2022/05/22 05:45:18;;;;;;;6.45;3.20;;;14.70;99.90;;;;;;4964458;28;20664;-64
2022/05/22 05:47:47;;;;;;;3.47;3.00;;;14.80;99.90;;;;;;4964705;28;20249;-63
2022/05/22 05:50:16;;;;;;;4.85;3.00;;;14.90;99.90;;;;;;4961574;28;20258;-62
2022/05/22 05:52:45;;;;;;;4.85;3.10;;;15.00;99.90;;;;;;4958573;28;20238;-62
2022/05/22 05:55:14;;;;;;;10.82;3.80;;;15.10;99.90;;;;;;4967626;28;20265;-63
2022/05/22 05:57:42;;;;;;;7.25;3.10;;;15.20;99.90;;;;;;4961472;28;20254;-63
2022/05/22 06:00:13;;;;;;;8.10;3.35;;;15.40;99.90;;;;;;4960913;28;20227;-63
2022/05/22 06:02:41;;;;;;;4.30;2.70;;;15.50;99.90;;;;;;4959513;28;20231;-63
2022/05/22 06:05:11;;;;;;;4.93;2.85;;;15.60;99.90;;;;;;4954926;28;20226;-62
2022/05/22 06:07:39;;;;;;;5.63;3.20;;;15.80;99.90;;;;;;4957795;28;20700;-62
2022/05/22 06:10:11;;;;;;;5.30;3.53;;;15.90;99.90;;;;;;4974246;28;20200;-63
2022/05/22 06:12:39;;;;;;;6.75;3.67;;;16.00;99.90;;;;;;4960300;28;20604;-62
2022/05/22 06:15:08;;;;;;;3.63;3.33;;;16.10;99.90;;;;;;4967700;28;20329;-63
2022/05/22 06:17:38;;;;;;;5.32;3.15;;;16.20;99.90;;;;;;4973449;23;20235;-65
2022/05/22 06:20:09;;;;;;;4.32;3.25;;;16.30;99.90;;;;;;4947149;28;20203;-65
2022/05/22 06:22:37;;;;;;;4.35;3.17;;;16.50;99.90;;;;;;4944670;28;20578;-65
2022/05/22 06:25:09;;;;;;;7.25;3.00;;;16.70;99.90;;;;;;4953061;28;20581;-65
2022/05/22 06:27:37;;;;;;;6.18;3.05;;;16.70;99.90;;;;;;4951790;28;20261;-65
2022/05/22 06:30:06;;;;;;;5.47;3.45;;;16.80;99.90;;;;;;4951891;28;20238;-65
2022/05/22 06:32:34;;;;;;;6.50;3.45;;;16.80;99.90;;;;;;4952175;29;20630;-64
2022/05/22 06:35:04;;;;;;;5.60;3.20;;;16.80;99.90;;;;;;4951962;28;20400;-65
2022/05/22 06:37:32;;;;;;;5.85;2.88;;;16.90;99.90;;;;;;4952818;28;20259;-64
2022/05/22 06:40:05;;;;;;;6.22;2.95;;;17.00;99.90;;;;;;4951706;28;20286;-65
2022/05/22 06:42:37;;;;;;;5.20;2.92;;;17.10;99.90;;;;;;4951168;28;20258;-65
2022/05/22 06:45:09;;;;;;;6.65;2.95;;;17.30;99.90;;;;;;4951489;28;20203;-64
2022/05/22 06:47:38;;;;;;;4.40;2.85;;;17.30;99.90;;;;;;4952811;28;20222;-65
2022/05/22 06:50:08;;;;;;;5.40;3.08;;;17.40;99.90;;;;;;4949589;28;20199;-65
2022/05/22 06:52:36;;;;;;;5.50;2.85;;;17.60;99.90;;;;;;4952062;29;20290;-64
2022/05/22 06:55:07;;;;;;;4.70;2.65;;;17.80;99.90;;;;;;4951539;28;20702;-65
2022/05/22 06:57:37;;;;;;;3.00;2.75;;;17.90;99.90;;;;;;4952672;28;20286;-65
2022/05/22 07:00:08;;;;;;;4.95;2.90;;;17.90;99.90;;;;;;4951059;28;20203;-64
2022/05/22 07:02:39;;;;;;;4.63;2.13;;;18.10;99.90;;;;;;4949234;28;20608;-64
2022/05/22 07:05:08;;;;;;;5.78;2.78;;;18.10;99.90;;;;;;4952728;29;20295;-65
2022/05/22 07:07:36;;;;;;;5.07;2.80;;;18.20;99.90;;;;;;4951391;28;20652;-65
2022/05/22 07:10:05;;;;;;;4.60;2.67;;;18.20;99.90;;;;;;4951172;28;20255;-65
2022/05/22 07:12:33;;;;;;;4.72;2.63;;;18.30;99.90;;;;;;4948424;28;20207;-65
2022/05/22 07:15:03;;;;;;;4.88;2.35;;;18.30;99.90;;;;;;4955428;28;20222;-65
2022/05/22 07:17:31;;;;;;;3.88;2.50;;;18.40;99.90;;;;;;4956120;29;20243;-65
2022/05/22 07:20:00;;;;;;;3.67;2.40;;;18.50;99.90;;;;;;4954365;28;20715;-64
2022/05/22 07:22:28;;;;;;;6.68;2.33;;;18.60;99.90;;;;;;4954389;28;20203;-65
2022/05/22 07:24:55;;;;;;;3.60;2.05;;;18.70;99.90;;;;;;4954395;28;20251;-65
2022/05/22 07:27:24;;;;;;;4.28;2.35;;;18.80;99.90;;;;;;4956112;28;20250;-65
2022/05/22 07:29:51;;;;;;;4.47;2.38;;;18.90;99.90;;;;;;4954893;28;20233;-65
2022/05/22 07:32:21;;;;;;;5.72;2.45;;;19.10;99.90;;;;;;4955308;29;20238;-66
2022/05/22 07:34:49;;;;;;;4.82;2.35;;;19.10;99.90;;;;;;4955201;29;20243;-62
2022/05/22 07:37:21;;;;;;;5.22;2.03;;;19.20;99.90;;;;;;4950688;28;20315;-62
2022/05/22 07:39:49;;;;;;;2.50;2.20;;;19.20;99.90;;;;;;4948030;28;20637;-62
2022/05/22 07:42:17;;;;;;;3.10;2.20;;;19.20;99.90;;;;;;4953541;29;20231;-63
2022/05/22 07:44:46;;;;;;;3.72;2.28;;;19.30;99.90;;;;;;4956014;29;20238;-63
2022/05/22 07:47:14;;;;;;;4.47;1.65;;;19.40;99.90;;;;;;4955518;28;20227;-63
2022/05/22 07:52:29;;;;;;;7.13;2.15;;;19.40;99.90;;;;;;4952639;29;20677;-62
2022/05/22 07:54:57;;;;;;;3.40;1.90;;;19.50;99.90;;;;;;4954418;28;20247;-62
2022/05/22 07:57:25;;;;;;;2.88;2.05;;;19.60;99.90;;;;;;4952914;28;20669;-63
2022/05/22 07:59:53;;;;;;;5.57;2.58;;;19.70;99.90;;;;;;4954610;28;20234;-62
2022/05/22 08:02:21;;;;;;;6.25;2.15;;;19.90;99.90;;;;;;4952500;29;20719;-62
2022/05/22 08:04:50;;;;;;;3.60;2.47;;;19.80;99.90;;;;;;4955463;28;20282;-63
2022/05/22 08:07:18;;;;;;;1.90;1.70;;;20.10;99.90;;;;;;4954036;28;20580;-62
2022/05/22 08:09:46;;;;;;;3.28;1.95;;;20.30;99.90;;;;;;4954103;28;20294;-62
2022/05/22 08:12:14;;;;;;;3.03;2.40;;;20.40;99.90;;;;;;4952209;28;20208;-62
2022/05/22 08:14:44;;;;;;;5.30;2.10;;;20.60;99.90;;;;;;4961557;28;20235;-62
2022/05/22 08:17:12;;;;;;;4.47;2.20;;;20.70;99.90;;;;;;4951026;28;20736;-62
2022/05/22 08:19:40;;;;;;;4.50;2.25;;;21.00;99.90;;;;;;4952805;29;20255;-62
2022/05/22 08:22:09;;;;;;;5.97;2.63;;;21.10;99.90;;;;;;4945203;28;20666;-63
2022/05/22 08:24:38;;;;;;;4.18;2.70;;;21.20;99.90;;;;;;4953971;28;20210;-63
2022/05/22 08:27:06;;;;;;;5.88;2.40;;;21.40;99.90;;;;;;4951957;28;21604;-62
2022/05/22 08:29:34;;;;;;;4.55;2.15;;;21.60;99.90;;;;;;4952870;28;20238;-63
2022/05/22 08:32:02;;;;;;;4.65;2.40;;;21.80;99.90;;;;;;4953978;28;20234;-63
2022/05/22 08:34:30;;;;;;;5.95;2.25;;;21.80;99.90;;;;;;4954592;28;20242;-63
2022/05/22 08:36:58;;;;;;;3.78;1.80;;;21.90;99.90;;;;;;4953699;28;21219;-63
2022/05/22 08:39:28;;;;;;;3.70;1.70;;;22.00;99.90;;;;;;4953816;28;20258;-63
2022/05/22 08:41:59;;;;;;;3.83;2.35;;;22.10;99.90;;;;;;4935441;28;20230;-62
2022/05/22 08:44:32;;;;;;;6.57;1.73;;;22.30;99.90;;;;;;4954849;28;21051;-62
2022/05/22 08:47:03;;;;;;;4.32;2.17;;;22.50;99.90;;;;;;4953392;28;20227;-62
2022/05/22 08:49:36;;;;;;;4.82;2.30;;;22.80;99.90;;;;;;4951177;28;20326;-63
2022/05/22 08:52:11;;;;;;;4.90;2.25;;;22.90;99.90;;;;;;4949606;28;20254;-63
2022/05/22 08:54:42;;;;;;;5.30;2.10;;;23.00;99.90;;;;;;4952349;28;20805;-63
2022/05/22 09:00:07;;;;;;;3.25;1.55;;;23.10;99.90;;;;;;4955682;28;20746;-63
2022/05/22 09:02:37;;;;;;;2.88;2.03;;;23.50;99.60;;;;;;4950946;28;20308;-63
2022/05/22 09:05:08;;;;;;;6.47;1.45;;;23.50;99.10;;;;;;4953378;28;20229;-63
2022/05/22 09:07:44;;;;;;;4.43;1.92;;;23.60;99.10;;;;;;4951223;28;20262;-63
2022/05/22 09:10:18;;;;;;;3.83;1.60;;;23.80;97.90;;;;;;4955416;28;20203;-63
2022/05/22 09:12:57;;;;;;;1.80;1.65;;;23.90;97.40;;;;;;4949742;28;20234;-63
2022/05/22 09:15:47;;;;;;;2.67;1.35;;;24.00;98.50;;;;;;4952457;28;20220;-63
2022/05/22 09:18:24;;;;;;;4.38;1.88;;;24.30;98.40;;;;;;4952067;28;20257;-63
2022/05/22 09:20:56;;;;;;;6.10;2.00;;;24.40;97.10;;;;;;4947704;28;20301;-63
2022/05/22 09:23:47;;;;;;;3.80;1.55;;;24.50;96.50;;;;;;4952059;28;20207;-64
2022/05/22 09:26:30;;;;;;;3.55;1.90;;;24.60;96.30;;;;;;4952280;28;21003;-63
2022/05/22 09:29:04;;;;;;;1.70;1.40;;;24.70;95.70;;;;;;4952361;28;20517;-63
2022/05/22 09:31:43;;;;;;;1.30;1.20;;;25.20;95.40;;;;;;4953350;28;20835;-63
2022/05/22 09:34:20;;;;;;;3.70;1.80;;;25.50;94.00;;;;;;4949662;28;20257;-63
2022/05/22 09:37:00;;;;;;;2.85;2.00;;;25.80;93.90;;;;;;4948824;28;20322;-63
2022/05/22 09:39:46;;;;;;;4.80;1.60;;;25.50;94.30;;;;;;4953812;28;20213;-63
2022/05/22 09:42:38;;;;;;;2.53;1.48;;;25.80;93.50;;;;;;4951545;28;20355;-63
2022/05/22 09:45:17;;;;;;;2.05;1.50;;;25.90;92.80;;;;;;4950742;28;20204;-63
2022/05/22 09:48:09;;;;;;;3.75;1.55;;;25.70;92.20;;;;;;4932005;28;20219;-64
2022/05/22 09:51:03;;;;;;;3.72;1.60;;;25.60;92.60;;;;;;4949760;28;20318;-63
2022/05/22 09:53:44;;;;;;;1.65;1.30;;;25.50;92.70;;;;;;4950365;28;20318;-64
2022/05/22 09:56:39;;;;;;;3.42;1.88;;;25.50;92.40;;;;;;4951108;28;20310;-63
2022/05/22 09:59:24;;;;;;;2.13;1.60;;;25.80;94.10;;;;;;4953377;28;20325;-63
2022/05/22 10:01:55;;;;;;;1.98;1.30;;;25.90;92.50;;;;;;4952265;28;20277;-63
2022/05/22 10:04:37;;;;;;;3.85;1.88;;;26.10;92.40;;;;;;4952595;28;20206;-63
2022/05/22 10:07:14;;;;;;;3.28;1.70;;;26.50;93.60;;;;;;4953092;28;20769;-65
2022/05/22 10:09:51;;;;;;;6.93;2.15;;;26.70;90.70;;;;;;4951149;28;20286;-63
2022/05/22 10:12:30;;;;;;;3.88;1.85;;;26.60;91.30;;;;;;4951772;28;20625;-63
2022/05/22 10:15:14;;;;;;;2.53;1.35;;;26.70;92.30;;;;;;4947379;28;21458;-62
2022/05/22 10:17:58;;;;;;;3.08;1.58;;;27.10;91.20;;;;;;4952678;28;20813;-63
2022/05/22 10:20:38;;;;;;;3.17;1.40;;;27.40;92.40;;;;;;4947739;28;21056;-63
2022/05/22 10:23:16;;;;;;;2.55;1.48;;;27.60;90.60;;;;;;4947509;28;20233;-64
2022/05/22 10:25:54;;;;;;;1.80;1.50;;;27.40;90.60;;;;;;4950948;28;20270;-65
2022/05/22 10:28:25;;;;;;;2.20;1.33;;;27.50;89.90;;;;;;4952309;28;20740;-63
2022/05/22 10:30:59;;;;;;;1.80;1.20;;;27.60;90.20;;;;;;4952036;28;20206;-63
2022/05/22 10:33:32;;;;;;;2.53;1.30;;;27.60;86.60;;;;;;4950608;28;20282;-63
2022/05/22 10:36:06;;;;;;;2.10;1.50;;;27.70;86.80;;;;;;4950650;28;20203;-63
2022/05/22 10:38:39;;;;;;;3.85;1.73;;;27.60;89.10;;;;;;4951310;28;20296;-63
2022/05/22 10:44:09;;;;;;;3.20;1.40;;;27.90;86.70;;;;;;4952904;28;20298;-63
2022/05/22 10:46:50;;;;;;;1.85;1.30;;;27.80;87.20;;;;;;4948084;28;20341;-63
2022/05/22 10:49:19;;;;;;;2.58;1.60;;;28.30;86.60;;;;;;4949218;28;20210;-64
2022/05/22 10:51:56;;;;;;;3.47;1.67;;;28.50;82.20;;;;;;4950236;28;20223;-63
2022/05/22 10:54:28;;;;;;;1.88;1.10;;;28.50;84.00;;;;;;4948854;28;20238;-63
2022/05/22 10:57:08;;;;;;;3.35;1.50;;;28.90;83.80;;;;;;4949613;28;20250;-63
2022/05/22 10:59:36;;;;;;;3.25;1.30;;;29.10;81.60;;;;;;4951292;28;20234;-63
2022/05/22 11:02:06;;;;;;;2.15;1.50;;;29.10;79.80;;;;;;4949434;28;21069;-63
2022/05/22 11:04:39;;;;;;;2.33;1.30;;;29.30;82.40;;;;;;4952701;28;20314;-63
2022/05/22 11:07:08;;;;;;;4.35;2.25;;;29.30;80.40;;;;;;4948214;28;20349;-63
2022/05/22 11:09:46;;;;;;;3.55;1.10;;;29.20;79.60;;;;;;4949232;28;20252;-64
2022/05/22 11:12:19;;;;;;;2.50;1.40;;;29.20;78.70;;;;;;4948965;28;20222;-64
2022/05/22 11:14:47;;;;;;;1.83;1.27;;;29.10;78.70;;;;;;4947472;28;20342;-63
2022/05/22 11:17:19;;;;;;;1.83;1.15;;;29.20;78.70;;;;;;4951548;28;20305;-64
2022/05/22 11:19:49;;;;;;;1.67;1.02;;;29.40;77.80;;;;;;4946880;28;20239;-63
2022/05/22 11:22:32;;;;;;;2.35;1.38;;;29.50;84.10;;;;;;4950703;28;20739;-63
2022/05/22 11:25:19;;;;;;;1.63;1.23;;;29.10;80.20;;;;;;4948448;28;20238;-63
2022/05/22 11:27:59;;;;;;;3.17;1.23;;;28.60;78.20;;;;;;4951306;28;20285;-63
2022/05/22 11:30:39;;;;;;;2.83;1.27;;;28.70;79.60;;;;;;4948131;28;20266;-63
2022/05/22 11:33:23;;;;;;;1.67;1.00;;;28.30;83.10;;;;;;4946493;28;21075;-63
2022/05/22 11:35:59;;;;;;;3.85;1.67;;;28.40;79.30;;;;;;4944898;28;20290;-64
2022/05/22 11:38:43;;;;;;;2.95;1.27;;;28.50;79.80;;;;;;4949274;28;20312;-63
2022/05/22 11:41:22;;;;;;;2.78;1.10;;;28.70;78.00;;;;;;4949799;28;20207;-63
2022/05/22 11:44:08;;;;;;;2.50;1.58;;;28.80;77.70;;;;;;4947087;28;20214;-63
2022/05/22 11:46:49;;;;;;;1.85;1.10;;;29.00;78.60;;;;;;4950281;28;20394;-63
2022/05/22 11:49:29;;;;;;;2.53;1.42;;;28.90;77.00;;;;;;4949639;28;20934;-64
2022/05/22 11:55:26;;;;;;;2.88;1.23;;;29.10;77.20;;;;;;4946191;28;20199;-64
2022/05/22 11:58:07;;;;;;;2.60;1.40;;;29.40;76.60;;;;;;4948200;28;20310;-63
2022/05/22 12:00:40;;;;;;;3.22;1.40;;;29.40;74.90;;;;;;4952691;28;20226;-64
2022/05/22 12:03:31;;;;;;;2.08;1.20;;;29.20;75.00;;;;;;4954704;28;20225;-63
2022/05/22 12:06:11;;;;;;;3.10;1.00;;;29.00;74.60;;;;;;4939030;28;20324;-63
2022/05/22 12:08:56;;;;;;;3.10;1.10;;;29.50;76.00;;;;;;4955257;28;20223;-63
2022/05/22 12:11:31;;;;;;;2.50;1.23;;;29.80;77.50;;;;;;4954825;28;20231;-63
2022/05/22 12:14:16;;;;;;;2.58;1.30;;;30.20;77.90;;;;;;4954616;28;20362;-63
2022/05/22 12:16:50;;;;;;;1.50;1.10;;;30.00;74.30;;;;;;4953769;28;20301;-64
2022/05/22 12:19:26;;;;;;;2.17;1.20;;;29.80;73.80;;;;;;4949001;28;20261;-63
2022/05/22 12:22:08;;;;;;;4.47;1.48;;;29.80;74.80;;;;;;4953036;28;20221;-63
2022/05/22 12:24:45;;;;;;;1.20;1.08;;;30.30;76.10;;;;;;4952899;28;20425;-63
2022/05/22 12:27:21;;;;;;;2.33;1.20;;;30.00;75.30;;;;;;4955792;28;20277;-64
2022/05/22 12:30:00;;;;;;;5.78;1.58;;;30.50;71.50;;;;;;4950166;28;20246;-63
2022/05/22 12:32:30;;;;;;;1.85;1.20;;;30.60;73.90;;;;;;4949859;28;20300;-64
2022/05/22 12:35:00;;;;;;;2.10;1.63;;;30.30;72.50;;;;;;4960364;28;20210;-63
2022/05/22 12:37:35;;;;;;;1.80;0.98;;;30.30;73.70;;;;;;4957106;28;20270;-64
2022/05/22 12:40:22;;;;;;;1.90;1.00;;;30.50;72.90;;;;;;4951754;28;20279;-63
2022/05/22 12:42:53;;;;;;;2.80;1.23;;;30.10;70.90;;;;;;4951099;29;20191;-63
2022/05/22 12:45:24;;;;;;;3.42;1.70;;;29.50;73.20;;;;;;5000299;23;21247;-64
2022/05/22 12:47:54;;;;;;;2.75;1.20;;;29.50;73.30;;;;;;4966751;28;20194;-65
2022/05/22 12:50:32;;;;;;;1.92;1.25;;;29.70;71.00;;;;;;4967984;28;20609;-64
2022/05/22 12:53:02;;;;;;;2.38;0.95;;;30.30;72.90;;;;;;4970216;28;20684;-64
2022/05/22 12:55:33;;;;;;;1.65;1.17;;;30.80;71.20;;;;;;4971492;28;20238;-64
2022/05/22 12:58:04;;;;;;;2.55;1.10;;;31.00;69.50;;;;;;4971310;28;20230;-64
2022/05/22 13:00:36;;;;;;;3.72;1.52;;;31.40;69.90;;;;;;4971894;28;20203;-64
2022/05/22 13:03:11;;;;;;;3.85;1.55;;;31.00;72.50;;;;;;4971974;28;20237;-64
2022/05/22 13:05:39;;;;;;;1.95;1.23;;;31.00;69.50;;;;;;4972459;28;20229;-64
2022/05/22 13:08:33;;;;;;;2.47;1.50;;;30.90;70.70;;;;;;4973485;28;20672;-64
2022/05/22 13:11:10;;;;;;;3.53;1.48;;;31.00;70.00;;;;;;4963546;28;20199;-64
2022/05/22 13:13:58;;;;;;;3.75;1.42;;;31.40;71.80;;;;;;4954225;28;20631;-64
2022/05/22 13:16:29;;;;;;;3.10;1.10;;;31.00;70.10;;;;;;4955027;28;20230;-64
2022/05/22 13:18:57;;;;;;;1.88;1.42;;;30.90;71.20;;;;;;4973435;28;20223;-64
2022/05/22 13:21:31;;;;;;;1.75;1.20;;;31.20;69.40;;;;;;4973215;28;20202;-64
2022/05/22 13:24:05;;;;;;;2.95;1.63;;;31.10;70.00;;;;;;4972607;28;20210;-64
2022/05/22 13:26:34;;;;;;;1.65;1.40;;;31.10;69.30;;;;;;4972982;28;20601;-64
2022/05/22 13:29:08;;;;;;;1.58;1.00;;;31.40;69.30;;;;;;4973004;28;20199;-64